sensor_id;sensor_type;location;lat;lon;timestamp;P1;durP1;ratioP1;P2;durP2;ratioP2
813;SDS011;389;48.710;9.392;2023-04-06T00:01:47;33.67;;;14.60;;
813;SDS011;389;48.710;9.392;2023-04-06T00:04:12;23.90;;;13.37;;
813;SDS011;389;48.710;9.392;2023-04-06T00:06:38;27.30;;;12.43;;
813;SDS011;389;48.710;9.392;2023-04-06T00:09:03;21.40;;;12.30;;
813;SDS011;389;48.710;9.392;2023-04-06T00:11:29;32.20;;;16.63;;
813;SDS011;389;48.710;9.392;2023-04-06T00:13:54;43.93;;;19.00;;
813;SDS011;389;48.710;9.392;2023-04-06T00:16:20;25.40;;;14.30;;
813;SDS011;389;48.710;9.392;2023-04-06T00:18:46;27.93;;;13.80;;
813;SDS011;389;48.710;9.392;2023-04-06T00:21:12;16.20;;;10.00;;
813;SDS011;389;48.710;9.392;2023-04-06T00:23:39;19.67;;;10.00;;
813;SDS011;389;48.710;9.392;2023-04-06T00:26:04;16.30;;;10.00;;
813;SDS011;389;48.710;9.392;2023-04-06T00:28:30;18.20;;;9.70;;
813;SDS011;389;48.710;9.392;2023-04-06T00:30:56;15.60;;;9.27;;
813;SDS011;389;48.710;9.392;2023-04-06T00:33:22;18.00;;;9.17;;
813;SDS011;389;48.710;9.392;2023-04-06T00:35:48;16.00;;;9.10;;
813;SDS011;389;48.710;9.392;2023-04-06T00:38:16;16.37;;;9.03;;
813;SDS011;389;48.710;9.392;2023-04-06T00:40:43;16.27;;;8.70;;
813;SDS011;389;48.710;9.392;2023-04-06T00:43:12;15.03;;;8.87;;
813;SDS011;389;48.710;9.392;2023-04-06T00:45:38;15.43;;;9.63;;
813;SDS011;389;48.710;9.392;2023-04-06T00:48:05;13.63;;;8.97;;
813;SDS011;389;48.710;9.392;2023-04-06T00:50:31;15.60;;;8.53;;
813;SDS011;389;48.710;9.392;2023-04-06T00:52:56;17.13;;;8.87;;
813;SDS011;389;48.710;9.392;2023-04-06T00:55:23;15.27;;;8.87;;
813;SDS011;389;48.710;9.392;2023-04-06T00:57:48;16.83;;;9.40;;
813;SDS011;389;48.710;9.392;2023-04-06T01:00:16;15.63;;;9.20;;
813;SDS011;389;48.710;9.392;2023-04-06T01:02:41;17.33;;;8.73;;
813;SDS011;389;48.710;9.392;2023-04-06T01:05:07;15.17;;;10.00;;
813;SDS011;389;48.710;9.392;2023-04-06T01:07:33;19.53;;;8.80;;
813;SDS011;389;48.710;9.392;2023-04-06T01:09:58;16.30;;;8.70;;
813;SDS011;389;48.710;9.392;2023-04-06T01:12:24;18.87;;;9.80;;
813;SDS011;389;48.710;9.392;2023-04-06T01:14:50;15.10;;;9.07;;
813;SDS011;389;48.710;9.392;2023-04-06T01:17:15;12.00;;;8.47;;
813;SDS011;389;48.710;9.392;2023-04-06T01:19:41;18.53;;;9.97;;
813;SDS011;389;48.710;9.392;2023-04-06T01:22:06;17.70;;;10.17;;
813;SDS011;389;48.710;9.392;2023-04-06T01:24:32;18.40;;;9.27;;
813;SDS011;389;48.710;9.392;2023-04-06T01:26:58;13.23;;;9.37;;
813;SDS011;389;48.710;9.392;2023-04-06T01:29:24;12.73;;;8.23;;
813;SDS011;389;48.710;9.392;2023-04-06T01:31:49;15.80;;;9.47;;
813;SDS011;389;48.710;9.392;2023-04-06T01:34:15;16.83;;;10.20;;
813;SDS011;389;48.710;9.392;2023-04-06T01:36:41;17.83;;;9.87;;
813;SDS011;389;48.710;9.392;2023-04-06T01:39:06;14.07;;;9.17;;
813;SDS011;389;48.710;9.392;2023-04-06T01:41:32;13.80;;;9.00;;
813;SDS011;389;48.710;9.392;2023-04-06T01:43:58;16.77;;;9.20;;
813;SDS011;389;48.710;9.392;2023-04-06T01:46:23;16.80;;;10.47;;
813;SDS011;389;48.710;9.392;2023-04-06T01:48:49;16.03;;;9.20;;
813;SDS011;389;48.710;9.392;2023-04-06T01:51:15;16.60;;;9.40;;
813;SDS011;389;48.710;9.392;2023-04-06T01:53:40;15.13;;;9.23;;
813;SDS011;389;48.710;9.392;2023-04-06T01:56:06;18.40;;;10.57;;
813;SDS011;389;48.710;9.392;2023-04-06T01:58:31;22.30;;;12.07;;
813;SDS011;389;48.710;9.392;2023-04-06T02:00:57;24.33;;;12.27;;
813;SDS011;389;48.710;9.392;2023-04-06T02:03:23;63.07;;;28.33;;
813;SDS011;389;48.710;9.392;2023-04-06T02:05:48;73.30;;;34.10;;
813;SDS011;389;48.710;9.392;2023-04-06T02:08:14;70.13;;;29.93;;
813;SDS011;389;48.710;9.392;2023-04-06T02:10:39;52.40;;;24.93;;
813;SDS011;389;48.710;9.392;2023-04-06T02:13:05;40.90;;;19.63;;
813;SDS011;389;48.710;9.392;2023-04-06T02:15:30;23.93;;;13.53;;
813;SDS011;389;48.710;9.392;2023-04-06T02:17:56;21.03;;;12.43;;
813;SDS011;389;48.710;9.392;2023-04-06T02:20:22;19.37;;;12.40;;
813;SDS011;389;48.710;9.392;2023-04-06T02:22:48;18.63;;;11.20;;
813;SDS011;389;48.710;9.392;2023-04-06T02:25:13;16.10;;;9.50;;
813;SDS011;389;48.710;9.392;2023-04-06T02:27:39;19.63;;;10.70;;
813;SDS011;389;48.710;9.392;2023-04-06T02:30:04;19.73;;;11.60;;
813;SDS011;389;48.710;9.392;2023-04-06T02:32:30;15.83;;;10.37;;
813;SDS011;389;48.710;9.392;2023-04-06T02:34:56;17.80;;;10.60;;
813;SDS011;389;48.710;9.392;2023-04-06T02:37:21;16.30;;;10.57;;
813;SDS011;389;48.710;9.392;2023-04-06T02:39:48;14.77;;;9.57;;
813;SDS011;389;48.710;9.392;2023-04-06T02:42:14;20.00;;;11.03;;
813;SDS011;389;48.710;9.392;2023-04-06T02:44:41;16.13;;;9.40;;
813;SDS011;389;48.710;9.392;2023-04-06T02:47:07;17.87;;;9.80;;
813;SDS011;389;48.710;9.392;2023-04-06T02:49:32;21.63;;;10.43;;
813;SDS011;389;48.710;9.392;2023-04-06T02:51:58;16.30;;;9.67;;
813;SDS011;389;48.710;9.392;2023-04-06T02:54:23;22.13;;;10.77;;
813;SDS011;389;48.710;9.392;2023-04-06T02:56:49;16.87;;;10.47;;
813;SDS011;389;48.710;9.392;2023-04-06T02:59:14;20.37;;;11.37;;
813;SDS011;389;48.710;9.392;2023-04-06T03:01:40;17.23;;;9.90;;
813;SDS011;389;48.710;9.392;2023-04-06T03:04:06;18.87;;;9.47;;
813;SDS011;389;48.710;9.392;2023-04-06T03:06:31;17.90;;;10.83;;
813;SDS011;389;48.710;9.392;2023-04-06T03:08:57;20.13;;;9.57;;
813;SDS011;389;48.710;9.392;2023-04-06T03:11:23;20.97;;;10.27;;
813;SDS011;389;48.710;9.392;2023-04-06T03:13:50;19.23;;;11.20;;
813;SDS011;389;48.710;9.392;2023-04-06T03:16:16;17.20;;;9.70;;
813;SDS011;389;48.710;9.392;2023-04-06T03:18:41;21.03;;;10.60;;
813;SDS011;389;48.710;9.392;2023-04-06T03:21:07;17.03;;;10.03;;
813;SDS011;389;48.710;9.392;2023-04-06T03:23:32;21.50;;;11.47;;
813;SDS011;389;48.710;9.392;2023-04-06T03:25:58;20.43;;;11.50;;
813;SDS011;389;48.710;9.392;2023-04-06T03:28:23;24.87;;;11.50;;
813;SDS011;389;48.710;9.392;2023-04-06T03:30:49;19.07;;;11.17;;
813;SDS011;389;48.710;9.392;2023-04-06T03:33:15;22.73;;;12.47;;
813;SDS011;389;48.710;9.392;2023-04-06T03:35:40;17.13;;;10.40;;
813;SDS011;389;48.710;9.392;2023-04-06T03:38:06;23.50;;;12.00;;
813;SDS011;389;48.710;9.392;2023-04-06T03:40:31;20.07;;;10.80;;
813;SDS011;389;48.710;9.392;2023-04-06T03:42:57;24.13;;;11.40;;
813;SDS011;389;48.710;9.392;2023-04-06T03:45:22;23.33;;;11.40;;
813;SDS011;389;48.710;9.392;2023-04-06T03:47:48;19.47;;;11.67;;
813;SDS011;389;48.710;9.392;2023-04-06T03:50:13;19.73;;;11.60;;
813;SDS011;389;48.710;9.392;2023-04-06T03:52:39;20.30;;;12.20;;
813;SDS011;389;48.710;9.392;2023-04-06T03:55:05;21.43;;;12.03;;
813;SDS011;389;48.710;9.392;2023-04-06T03:57:31;17.03;;;10.30;;
813;SDS011;389;48.710;9.392;2023-04-06T03:59:57;19.90;;;11.53;;
813;SDS011;389;48.710;9.392;2023-04-06T04:02:23;20.00;;;10.73;;
813;SDS011;389;48.710;9.392;2023-04-06T04:04:48;21.43;;;11.30;;
813;SDS011;389;48.710;9.392;2023-04-06T04:07:14;20.37;;;12.10;;
813;SDS011;389;48.710;9.392;2023-04-06T04:09:39;20.47;;;11.17;;
813;SDS011;389;48.710;9.392;2023-04-06T04:12:05;20.37;;;10.87;;
813;SDS011;389;48.710;9.392;2023-04-06T04:14:31;24.70;;;11.60;;
813;SDS011;389;48.710;9.392;2023-04-06T04:16:56;20.77;;;11.70;;
813;SDS011;389;48.710;9.392;2023-04-06T04:19:22;22.53;;;11.80;;
813;SDS011;389;48.710;9.392;2023-04-06T04:21:47;24.37;;;14.27;;
813;SDS011;389;48.710;9.392;2023-04-06T04:24:13;19.97;;;12.50;;
813;SDS011;389;48.710;9.392;2023-04-06T04:26:39;18.90;;;11.60;;
813;SDS011;389;48.710;9.392;2023-04-06T04:29:05;17.87;;;11.20;;
813;SDS011;389;48.710;9.392;2023-04-06T04:31:37;20.50;;;10.90;;
813;SDS011;389;48.710;9.392;2023-04-06T04:34:02;17.70;;;10.07;;
813;SDS011;389;48.710;9.392;2023-04-06T04:36:28;17.93;;;9.70;;
813;SDS011;389;48.710;9.392;2023-04-06T04:38:54;20.50;;;10.57;;
813;SDS011;389;48.710;9.392;2023-04-06T04:41:20;18.97;;;10.23;;
813;SDS011;389;48.710;9.392;2023-04-06T04:43:45;17.37;;;9.80;;
813;SDS011;389;48.710;9.392;2023-04-06T04:46:11;22.57;;;11.60;;
813;SDS011;389;48.710;9.392;2023-04-06T04:48:36;19.07;;;10.40;;
813;SDS011;389;48.710;9.392;2023-04-06T04:51:03;21.23;;;10.97;;
813;SDS011;389;48.710;9.392;2023-04-06T04:53:29;18.57;;;10.67;;
813;SDS011;389;48.710;9.392;2023-04-06T04:55:55;18.83;;;11.17;;
813;SDS011;389;48.710;9.392;2023-04-06T04:58:20;26.23;;;10.93;;
813;SDS011;389;48.710;9.392;2023-04-06T05:00:46;15.97;;;9.37;;
813;SDS011;389;48.710;9.392;2023-04-06T05:03:14;23.67;;;12.37;;
813;SDS011;389;48.710;9.392;2023-04-06T05:05:47;19.90;;;10.80;;
813;SDS011;389;48.710;9.392;2023-04-06T05:08:13;24.30;;;11.30;;
813;SDS011;389;48.710;9.392;2023-04-06T05:10:38;23.60;;;10.27;;
813;SDS011;389;48.710;9.392;2023-04-06T05:13:04;20.87;;;11.50;;
813;SDS011;389;48.710;9.392;2023-04-06T05:15:30;19.57;;;10.90;;
813;SDS011;389;48.710;9.392;2023-04-06T05:17:56;19.60;;;11.97;;
813;SDS011;389;48.710;9.392;2023-04-06T05:20:21;25.70;;;11.10;;
813;SDS011;389;48.710;9.392;2023-04-06T05:22:47;23.97;;;13.70;;
813;SDS011;389;48.710;9.392;2023-04-06T05:25:13;23.13;;;11.73;;
813;SDS011;389;48.710;9.392;2023-04-06T05:27:39;18.93;;;11.00;;
813;SDS011;389;48.710;9.392;2023-04-06T05:30:06;19.67;;;10.90;;
813;SDS011;389;48.710;9.392;2023-04-06T05:32:32;23.30;;;12.23;;
813;SDS011;389;48.710;9.392;2023-04-06T05:34:58;21.27;;;11.70;;
813;SDS011;389;48.710;9.392;2023-04-06T05:37:23;24.83;;;12.60;;
813;SDS011;389;48.710;9.392;2023-04-06T05:39:49;24.30;;;13.43;;
813;SDS011;389;48.710;9.392;2023-04-06T05:42:15;24.03;;;13.67;;
813;SDS011;389;48.710;9.392;2023-04-06T05:44:40;27.80;;;15.27;;
813;SDS011;389;48.710;9.392;2023-04-06T05:47:06;29.27;;;14.60;;
813;SDS011;389;48.710;9.392;2023-04-06T05:49:32;20.63;;;13.70;;
813;SDS011;389;48.710;9.392;2023-04-06T05:51:57;25.00;;;13.47;;
813;SDS011;389;48.710;9.392;2023-04-06T05:54:23;23.27;;;12.97;;
813;SDS011;389;48.710;9.392;2023-04-06T05:56:48;24.23;;;14.13;;
813;SDS011;389;48.710;9.392;2023-04-06T05:59:14;25.43;;;14.60;;
813;SDS011;389;48.710;9.392;2023-04-06T06:01:41;23.00;;;13.57;;
813;SDS011;389;48.710;9.392;2023-04-06T06:04:06;21.93;;;12.70;;
813;SDS011;389;48.710;9.392;2023-04-06T06:06:32;23.57;;;13.00;;
813;SDS011;389;48.710;9.392;2023-04-06T06:08:57;21.50;;;15.43;;
813;SDS011;389;48.710;9.392;2023-04-06T06:11:27;19.50;;;12.37;;
813;SDS011;389;48.710;9.392;2023-04-06T06:13:53;25.77;;;12.80;;
813;SDS011;389;48.710;9.392;2023-04-06T06:16:18;21.10;;;12.70;;
813;SDS011;389;48.710;9.392;2023-04-06T06:18:44;24.47;;;12.87;;
813;SDS011;389;48.710;9.392;2023-04-06T06:21:10;20.50;;;11.63;;
813;SDS011;389;48.710;9.392;2023-04-06T06:23:39;18.67;;;11.63;;
813;SDS011;389;48.710;9.392;2023-04-06T06:26:06;24.70;;;12.87;;
813;SDS011;389;48.710;9.392;2023-04-06T06:28:33;21.63;;;12.73;;
813;SDS011;389;48.710;9.392;2023-04-06T06:30:58;21.10;;;12.47;;
813;SDS011;389;48.710;9.392;2023-04-06T06:33:24;26.80;;;15.70;;
813;SDS011;389;48.710;9.392;2023-04-06T06:35:51;27.90;;;14.27;;
813;SDS011;389;48.710;9.392;2023-04-06T06:38:16;20.23;;;12.10;;
813;SDS011;389;48.710;9.392;2023-04-06T06:40:42;21.60;;;12.30;;
813;SDS011;389;48.710;9.392;2023-04-06T06:43:08;18.80;;;11.50;;
813;SDS011;389;48.710;9.392;2023-04-06T06:45:33;18.67;;;11.50;;
813;SDS011;389;48.710;9.392;2023-04-06T06:47:59;15.63;;;10.83;;
813;SDS011;389;48.710;9.392;2023-04-06T06:50:25;20.07;;;11.90;;
813;SDS011;389;48.710;9.392;2023-04-06T06:52:50;32.53;;;18.30;;
813;SDS011;389;48.710;9.392;2023-04-06T06:55:16;32.50;;;17.13;;
813;SDS011;389;48.710;9.392;2023-04-06T06:57:43;24.50;;;14.40;;
813;SDS011;389;48.710;9.392;2023-04-06T07:00:11;18.97;;;12.37;;
813;SDS011;389;48.710;9.392;2023-04-06T07:02:38;21.33;;;13.20;;
813;SDS011;389;48.710;9.392;2023-04-06T07:05:04;19.73;;;12.00;;
813;SDS011;389;48.710;9.392;2023-04-06T07:07:31;20.00;;;12.27;;
813;SDS011;389;48.710;9.392;2023-04-06T07:09:58;16.80;;;11.03;;
813;SDS011;389;48.710;9.392;2023-04-06T07:12:23;20.10;;;11.40;;
813;SDS011;389;48.710;9.392;2023-04-06T07:14:49;18.97;;;10.87;;
813;SDS011;389;48.710;9.392;2023-04-06T07:17:14;20.20;;;12.33;;
813;SDS011;389;48.710;9.392;2023-04-06T07:19:40;18.50;;;12.00;;
813;SDS011;389;48.710;9.392;2023-04-06T07:22:05;22.53;;;13.90;;
813;SDS011;389;48.710;9.392;2023-04-06T07:24:31;23.43;;;13.23;;
813;SDS011;389;48.710;9.392;2023-04-06T07:26:58;18.50;;;11.40;;
813;SDS011;389;48.710;9.392;2023-04-06T07:29:25;19.77;;;11.37;;
813;SDS011;389;48.710;9.392;2023-04-06T07:31:52;20.90;;;11.40;;
813;SDS011;389;48.710;9.392;2023-04-06T07:34:17;18.03;;;11.50;;
813;SDS011;389;48.710;9.392;2023-04-06T07:36:43;21.13;;;11.37;;
813;SDS011;389;48.710;9.392;2023-04-06T07:39:09;23.03;;;12.87;;
813;SDS011;389;48.710;9.392;2023-04-06T07:41:35;18.43;;;11.63;;
813;SDS011;389;48.710;9.392;2023-04-06T07:44:01;19.13;;;12.90;;
813;SDS011;389;48.710;9.392;2023-04-06T07:46:26;19.20;;;11.40;;
813;SDS011;389;48.710;9.392;2023-04-06T07:48:52;19.30;;;13.57;;
813;SDS011;389;48.710;9.392;2023-04-06T07:51:18;22.23;;;12.73;;
813;SDS011;389;48.710;9.392;2023-04-06T07:53:44;20.50;;;12.40;;
813;SDS011;389;48.710;9.392;2023-04-06T07:56:09;19.47;;;12.23;;
813;SDS011;389;48.710;9.392;2023-04-06T07:58:35;21.80;;;12.87;;
813;SDS011;389;48.710;9.392;2023-04-06T08:01:01;19.03;;;12.03;;
813;SDS011;389;48.710;9.392;2023-04-06T08:03:27;22.10;;;12.83;;
813;SDS011;389;48.710;9.392;2023-04-06T08:05:52;17.97;;;12.30;;
813;SDS011;389;48.710;9.392;2023-04-06T08:08:18;21.07;;;12.40;;
813;SDS011;389;48.710;9.392;2023-04-06T08:10:46;20.93;;;12.13;;
813;SDS011;389;48.710;9.392;2023-04-06T08:13:12;17.30;;;12.13;;
813;SDS011;389;48.710;9.392;2023-04-06T08:15:37;16.17;;;12.30;;
813;SDS011;389;48.710;9.392;2023-04-06T08:18:03;27.80;;;14.00;;
813;SDS011;389;48.710;9.392;2023-04-06T08:20:29;19.93;;;13.47;;
813;SDS011;389;48.710;9.392;2023-04-06T08:22:55;24.13;;;13.23;;
813;SDS011;389;48.710;9.392;2023-04-06T08:25:20;18.73;;;12.27;;
813;SDS011;389;48.710;9.392;2023-04-06T08:27:46;19.13;;;11.80;;
813;SDS011;389;48.710;9.392;2023-04-06T08:30:11;22.27;;;14.27;;
813;SDS011;389;48.710;9.392;2023-04-06T08:32:37;19.00;;;12.60;;
813;SDS011;389;48.710;9.392;2023-04-06T08:35:03;18.23;;;12.90;;
813;SDS011;389;48.710;9.392;2023-04-06T08:37:28;19.47;;;12.90;;
813;SDS011;389;48.710;9.392;2023-04-06T08:39:54;20.47;;;12.20;;
813;SDS011;389;48.710;9.392;2023-04-06T08:42:20;17.80;;;12.20;;
813;SDS011;389;48.710;9.392;2023-04-06T08:44:48;18.20;;;12.03;;
813;SDS011;389;48.710;9.392;2023-04-06T08:47:16;17.23;;;11.20;;
813;SDS011;389;48.710;9.392;2023-04-06T08:49:41;22.00;;;13.00;;
813;SDS011;389;48.710;9.392;2023-04-06T08:52:09;20.57;;;13.43;;
813;SDS011;389;48.710;9.392;2023-04-06T08:54:35;17.23;;;11.80;;
813;SDS011;389;48.710;9.392;2023-04-06T08:57:01;18.20;;;12.20;;
813;SDS011;389;48.710;9.392;2023-04-06T08:59:28;18.63;;;11.43;;
813;SDS011;389;48.710;9.392;2023-04-06T09:01:54;13.83;;;10.40;;
813;SDS011;389;48.710;9.392;2023-04-06T09:04:20;17.60;;;11.33;;
813;SDS011;389;48.710;9.392;2023-04-06T09:06:46;17.77;;;12.10;;
813;SDS011;389;48.710;9.392;2023-04-06T09:09:11;15.97;;;11.73;;
813;SDS011;389;48.710;9.392;2023-04-06T09:11:47;18.33;;;11.50;;
813;SDS011;389;48.710;9.392;2023-04-06T09:14:14;18.37;;;10.97;;
813;SDS011;389;48.710;9.392;2023-04-06T09:16:44;19.40;;;11.73;;
813;SDS011;389;48.710;9.392;2023-04-06T09:19:10;17.67;;;11.33;;
813;SDS011;389;48.710;9.392;2023-04-06T09:21:37;16.90;;;11.00;;
813;SDS011;389;48.710;9.392;2023-04-06T09:24:06;17.57;;;10.57;;
813;SDS011;389;48.710;9.392;2023-04-06T09:26:32;18.57;;;11.60;;
813;SDS011;389;48.710;9.392;2023-04-06T09:29:10;17.80;;;11.50;;
813;SDS011;389;48.710;9.392;2023-04-06T09:31:46;19.57;;;11.27;;
813;SDS011;389;48.710;9.392;2023-04-06T09:34:20;16.20;;;10.77;;
813;SDS011;389;48.710;9.392;2023-04-06T09:36:46;18.00;;;10.27;;
813;SDS011;389;48.710;9.392;2023-04-06T09:39:12;15.30;;;10.43;;
813;SDS011;389;48.710;9.392;2023-04-06T09:41:38;16.50;;;11.00;;
813;SDS011;389;48.710;9.392;2023-04-06T09:44:07;17.30;;;11.00;;
813;SDS011;389;48.710;9.392;2023-04-06T09:46:37;17.50;;;10.57;;
813;SDS011;389;48.710;9.392;2023-04-06T09:49:04;16.60;;;11.07;;
813;SDS011;389;48.710;9.392;2023-04-06T09:51:32;15.50;;;10.57;;
813;SDS011;389;48.710;9.392;2023-04-06T09:54:02;14.30;;;10.07;;
813;SDS011;389;48.710;9.392;2023-04-06T09:56:43;18.90;;;11.90;;
813;SDS011;389;48.710;9.392;2023-04-06T09:59:31;22.70;;;12.20;;
813;SDS011;389;48.710;9.392;2023-04-06T10:02:32;11.80;;;7.90;;
813;SDS011;389;48.710;9.392;2023-04-06T10:05:09;10.60;;;7.67;;
813;SDS011;389;48.710;9.392;2023-04-06T10:07:41;9.17;;;6.53;;
813;SDS011;389;48.710;9.392;2023-04-06T10:10:07;12.67;;;7.00;;
813;SDS011;389;48.710;9.392;2023-04-06T10:12:34;11.30;;;7.27;;
813;SDS011;389;48.710;9.392;2023-04-06T10:15:02;11.30;;;7.67;;
813;SDS011;389;48.710;9.392;2023-04-06T10:17:28;11.40;;;8.47;;
813;SDS011;389;48.710;9.392;2023-04-06T10:19:54;13.80;;;8.27;;
813;SDS011;389;48.710;9.392;2023-04-06T10:22:36;11.20;;;7.33;;
813;SDS011;389;48.710;9.392;2023-04-06T10:25:31;11.50;;;7.47;;
813;SDS011;389;48.710;9.392;2023-04-06T10:28:01;13.37;;;7.60;;
813;SDS011;389;48.710;9.392;2023-04-06T10:30:31;13.33;;;8.50;;
813;SDS011;389;48.710;9.392;2023-04-06T10:32:58;10.40;;;8.20;;
813;SDS011;389;48.710;9.392;2023-04-06T10:35:23;12.20;;;8.13;;
813;SDS011;389;48.710;9.392;2023-04-06T10:38:01;11.33;;;8.23;;
813;SDS011;389;48.710;9.392;2023-04-06T10:40:28;11.30;;;7.17;;
813;SDS011;389;48.710;9.392;2023-04-06T10:42:54;13.67;;;8.43;;
813;SDS011;389;48.710;9.392;2023-04-06T10:45:22;9.43;;;6.50;;
813;SDS011;389;48.710;9.392;2023-04-06T10:47:53;12.50;;;8.00;;
813;SDS011;389;48.710;9.392;2023-04-06T10:50:20;10.53;;;7.07;;
813;SDS011;389;48.710;9.392;2023-04-06T10:52:46;11.43;;;7.50;;
813;SDS011;389;48.710;9.392;2023-04-06T10:55:13;10.60;;;7.60;;
813;SDS011;389;48.710;9.392;2023-04-06T10:57:39;10.17;;;7.77;;
813;SDS011;389;48.710;9.392;2023-04-06T11:00:06;12.43;;;8.20;;
813;SDS011;389;48.710;9.392;2023-04-06T11:02:34;10.07;;;7.10;;
813;SDS011;389;48.710;9.392;2023-04-06T11:05:02;9.87;;;7.63;;
813;SDS011;389;48.710;9.392;2023-04-06T11:07:28;11.20;;;7.37;;
813;SDS011;389;48.710;9.392;2023-04-06T11:09:55;11.27;;;7.87;;
813;SDS011;389;48.710;9.392;2023-04-06T11:12:22;12.80;;;7.80;;
813;SDS011;389;48.710;9.392;2023-04-06T11:14:55;9.37;;;6.47;;
813;SDS011;389;48.710;9.392;2023-04-06T11:17:27;10.40;;;6.80;;
813;SDS011;389;48.710;9.392;2023-04-06T11:19:54;9.03;;;5.80;;
813;SDS011;389;48.710;9.392;2023-04-06T11:22:20;7.20;;;5.60;;
813;SDS011;389;48.710;9.392;2023-04-06T11:24:46;9.40;;;6.00;;
813;SDS011;389;48.710;9.392;2023-04-06T11:27:11;9.27;;;6.63;;
813;SDS011;389;48.710;9.392;2023-04-06T11:29:39;8.30;;;5.90;;
813;SDS011;389;48.710;9.392;2023-04-06T11:32:05;9.80;;;7.13;;
813;SDS011;389;48.710;9.392;2023-04-06T11:34:36;10.33;;;6.60;;
813;SDS011;389;48.710;9.392;2023-04-06T11:37:07;11.20;;;7.10;;
813;SDS011;389;48.710;9.392;2023-04-06T11:39:40;7.67;;;6.20;;
813;SDS011;389;48.710;9.392;2023-04-06T11:42:20;12.40;;;6.70;;
813;SDS011;389;48.710;9.392;2023-04-06T11:44:49;9.30;;;7.20;;
813;SDS011;389;48.710;9.392;2023-04-06T11:47:16;10.13;;;7.10;;
813;SDS011;389;48.710;9.392;2023-04-06T11:49:42;11.53;;;7.60;;
813;SDS011;389;48.710;9.392;2023-04-06T11:52:19;10.30;;;7.13;;
813;SDS011;389;48.710;9.392;2023-04-06T11:54:47;9.50;;;6.70;;
813;SDS011;389;48.710;9.392;2023-04-06T11:57:14;9.00;;;6.87;;
813;SDS011;389;48.710;9.392;2023-04-06T11:59:39;10.93;;;6.70;;
813;SDS011;389;48.710;9.392;2023-04-06T12:02:05;10.70;;;7.60;;
813;SDS011;389;48.710;9.392;2023-04-06T12:04:31;10.53;;;7.00;;
813;SDS011;389;48.710;9.392;2023-04-06T12:06:57;11.73;;;7.43;;
813;SDS011;389;48.710;9.392;2023-04-06T12:09:23;8.50;;;5.93;;
813;SDS011;389;48.710;9.392;2023-04-06T12:11:48;9.53;;;5.83;;
813;SDS011;389;48.710;9.392;2023-04-06T12:14:14;7.70;;;5.53;;
813;SDS011;389;48.710;9.392;2023-04-06T12:16:40;9.40;;;6.70;;
813;SDS011;389;48.710;9.392;2023-04-06T12:19:05;9.37;;;7.20;;
813;SDS011;389;48.710;9.392;2023-04-06T12:21:31;9.10;;;6.60;;
813;SDS011;389;48.710;9.392;2023-04-06T12:23:58;9.13;;;5.90;;
813;SDS011;389;48.710;9.392;2023-04-06T12:26:25;8.37;;;5.70;;
813;SDS011;389;48.710;9.392;2023-04-06T12:28:51;7.40;;;5.70;;
813;SDS011;389;48.710;9.392;2023-04-06T12:31:17;7.37;;;5.50;;
813;SDS011;389;48.710;9.392;2023-04-06T12:33:46;9.60;;;5.83;;
813;SDS011;389;48.710;9.392;2023-04-06T12:36:18;9.03;;;6.50;;
813;SDS011;389;48.710;9.392;2023-04-06T12:38:45;9.30;;;6.23;;
813;SDS011;389;48.710;9.392;2023-04-06T12:41:12;10.40;;;6.40;;
813;SDS011;389;48.710;9.392;2023-04-06T12:43:38;9.50;;;5.73;;
813;SDS011;389;48.710;9.392;2023-04-06T12:46:04;8.07;;;6.20;;
813;SDS011;389;48.710;9.392;2023-04-06T12:48:30;9.00;;;6.30;;
813;SDS011;389;48.710;9.392;2023-04-06T12:50:57;6.80;;;5.67;;
813;SDS011;389;48.710;9.392;2023-04-06T12:53:23;11.10;;;6.70;;
813;SDS011;389;48.710;9.392;2023-04-06T12:55:49;10.23;;;6.20;;
813;SDS011;389;48.710;9.392;2023-04-06T12:58:15;8.83;;;5.93;;
813;SDS011;389;48.710;9.392;2023-04-06T13:00:42;9.73;;;5.60;;
813;SDS011;389;48.710;9.392;2023-04-06T13:03:07;7.83;;;5.70;;
813;SDS011;389;48.710;9.392;2023-04-06T13:05:33;8.80;;;6.43;;
813;SDS011;389;48.710;9.392;2023-04-06T13:07:58;8.70;;;5.80;;
813;SDS011;389;48.710;9.392;2023-04-06T13:10:24;7.20;;;5.50;;
813;SDS011;389;48.710;9.392;2023-04-06T13:12:50;8.20;;;6.30;;
813;SDS011;389;48.710;9.392;2023-04-06T13:15:16;12.97;;;5.87;;
813;SDS011;389;48.710;9.392;2023-04-06T13:17:41;8.27;;;6.43;;
813;SDS011;389;48.710;9.392;2023-04-06T13:20:07;9.50;;;6.00;;
813;SDS011;389;48.710;9.392;2023-04-06T13:22:33;9.20;;;5.77;;
813;SDS011;389;48.710;9.392;2023-04-06T13:24:58;9.43;;;5.73;;
813;SDS011;389;48.710;9.392;2023-04-06T13:27:24;7.10;;;5.03;;
813;SDS011;389;48.710;9.392;2023-04-06T13:29:49;10.60;;;5.83;;
813;SDS011;389;48.710;9.392;2023-04-06T13:32:15;7.27;;;5.17;;
813;SDS011;389;48.710;9.392;2023-04-06T13:34:41;7.90;;;5.67;;
813;SDS011;389;48.710;9.392;2023-04-06T13:37:09;7.67;;;5.10;;
813;SDS011;389;48.710;9.392;2023-04-06T13:39:38;9.07;;;5.33;;
813;SDS011;389;48.710;9.392;2023-04-06T13:42:04;7.30;;;5.68;;
813;SDS011;389;48.710;9.392;2023-04-06T13:44:30;9.00;;;5.57;;
813;SDS011;389;48.710;9.392;2023-04-06T13:46:56;7.70;;;5.00;;
813;SDS011;389;48.710;9.392;2023-04-06T13:49:21;6.77;;;4.80;;
813;SDS011;389;48.710;9.392;2023-04-06T13:51:47;7.43;;;5.23;;
813;SDS011;389;48.710;9.392;2023-04-06T13:54:13;8.60;;;6.00;;
813;SDS011;389;48.710;9.392;2023-04-06T13:56:38;6.30;;;4.93;;
813;SDS011;389;48.710;9.392;2023-04-06T13:59:04;9.43;;;5.60;;
813;SDS011;389;48.710;9.392;2023-04-06T14:01:30;9.37;;;5.70;;
813;SDS011;389;48.710;9.392;2023-04-06T14:03:56;6.47;;;5.13;;
813;SDS011;389;48.710;9.392;2023-04-06T14:06:21;5.97;;;4.10;;
813;SDS011;389;48.710;9.392;2023-04-06T14:08:47;6.90;;;4.80;;
813;SDS011;389;48.710;9.392;2023-04-06T14:11:13;7.20;;;5.00;;
813;SDS011;389;48.710;9.392;2023-04-06T14:13:39;5.40;;;4.87;;
813;SDS011;389;48.710;9.392;2023-04-06T14:16:05;8.00;;;4.77;;
813;SDS011;389;48.710;9.392;2023-04-06T14:18:31;6.63;;;5.03;;
813;SDS011;389;48.710;9.392;2023-04-06T14:20:59;7.77;;;5.17;;
813;SDS011;389;48.710;9.392;2023-04-06T14:23:25;6.40;;;4.60;;
813;SDS011;389;48.710;9.392;2023-04-06T14:26:01;7.33;;;5.17;;
813;SDS011;389;48.710;9.392;2023-04-06T14:28:28;6.50;;;4.53;;
813;SDS011;389;48.710;9.392;2023-04-06T14:30:54;6.97;;;4.60;;
813;SDS011;389;48.710;9.392;2023-04-06T14:33:19;6.90;;;4.23;;
813;SDS011;389;48.710;9.392;2023-04-06T14:35:45;7.17;;;4.93;;
813;SDS011;389;48.710;9.392;2023-04-06T14:38:11;5.80;;;4.50;;
813;SDS011;389;48.710;9.392;2023-04-06T14:40:36;7.03;;;5.00;;
813;SDS011;389;48.710;9.392;2023-04-06T14:43:02;6.47;;;4.50;;
813;SDS011;389;48.710;9.392;2023-04-06T14:45:28;6.70;;;4.30;;
813;SDS011;389;48.710;9.392;2023-04-06T14:47:54;5.27;;;4.30;;
813;SDS011;389;48.710;9.392;2023-04-06T14:50:20;6.37;;;4.43;;
813;SDS011;389;48.710;9.392;2023-04-06T14:52:45;6.23;;;4.73;;
813;SDS011;389;48.710;9.392;2023-04-06T14:55:11;5.43;;;4.50;;
813;SDS011;389;48.710;9.392;2023-04-06T14:57:37;5.97;;;4.40;;
813;SDS011;389;48.710;9.392;2023-04-06T15:00:03;5.60;;;4.20;;
813;SDS011;389;48.710;9.392;2023-04-06T15:02:29;7.20;;;4.60;;
813;SDS011;389;48.710;9.392;2023-04-06T15:04:56;6.47;;;4.47;;
813;SDS011;389;48.710;9.392;2023-04-06T15:07:22;6.17;;;4.33;;
813;SDS011;389;48.710;9.392;2023-04-06T15:09:47;5.30;;;4.53;;
813;SDS011;389;48.710;9.392;2023-04-06T15:12:13;5.70;;;4.20;;
813;SDS011;389;48.710;9.392;2023-04-06T15:14:38;6.47;;;4.67;;
813;SDS011;389;48.710;9.392;2023-04-06T15:17:04;7.17;;;4.60;;
813;SDS011;389;48.710;9.392;2023-04-06T15:19:30;6.73;;;4.43;;
813;SDS011;389;48.710;9.392;2023-04-06T15:21:56;5.77;;;4.30;;